Fehn Lyra — YLOH — position and weather

sailwx.info

Track history (hours):
 
Tides and Currents Weather Stations Pressure Air Temp Water Temp Dewpoint Dewpoint Depression Visibility Wind Speed Wind Dir Waves Ship Positions

Fehn Lyra

Last reported at 2018-Jul-19 07:15 UTC. Time now 2018-Jul-22 04:46 UTC.
Position N 49°48' W 003°27'.

Length 89 m; draft 5.7 m.

Type: Cargo ship. MMSI: 275472000.

Date/timePositionNaut miles runAvg speedWind from/ knotsBaromVisibWave heightAir tempDewpointWater temp
2018-Jul-19 07:15N 49°48' W 003°27'311.5
2018-Jul-19 06:57N 49°50' W 003°23'511.8
2018-Jul-19 06:30N 49°52' W 003°16'612.0
2018-Jul-19 06:00N 49°55' W 003°08'612.1
2018-Jul-19 05:30N 49°58' W 002°60'611.7
2018-Jul-19 05:00N 50°00' W 002°51'611.7
2018-Jul-19 04:30N 50°02' W 002°42'611.4
2018-Jul-19 04:00N 50°04' W 002°34'20 9.6
2018-Jul-19 01:54N 50°09' W 002°04'18 7.2
2018-Jul-18 23:28N 50°14' W 001°37'3 7.2
2018-Jul-18 23:00N 50°15' W 001°32'4 7.9
2018-Jul-18 22:30N 50°16' W 001°27'13 9.6
2018-Jul-18 21:10N 50°19' W 001°07'311.4
2018-Jul-18 20:56N 50°20' W 001°03'512.2
2018-Jul-18 20:30N 50°22' W 000°55'612.6
2018-Jul-18 20:00N 50°24' W 000°46'612.6
2018-Jul-18 19:30N 50°25' W 000°37'612.6
2018-Jul-18 19:00N 50°27' W 000°27'612.4
2018-Jul-18 18:30N 50°28' W 000°18'612.0
2018-Jul-18 18:00N 50°30' W 000°09'611.6
2018-Jul-18 17:30N 50°32' E 000°00'611.3
2018-Jul-18 17:00N 50°33' E 000°09'611.0
2018-Jul-18 16:30N 50°35' E 000°17'510.6
2018-Jul-18 16:00N 50°36' E 000°25'510.2
2018-Jul-18 15:30N 50°38' E 000°33'5 9.6
2018-Jul-18 15:00N 50°40' E 000°39'5 9.4
2018-Jul-18 14:30N 50°43' E 000°45'10 9.6
2018-Jul-18 13:30N 50°49' E 000°57'510.0
2018-Jul-18 13:00N 50°52' E 001°03'510.7
2018-Jul-18 12:30N 50°55' E 001°10'611.8
2018-Jul-18 12:00N 50°59' E 001°17'612.9
2018-Jul-18 11:30N 51°03' E 001°25'1413.6
2018-Jul-18 10:30N 51°12' E 001°42'612.1
2018-Jul-18 10:00N 51°17' E 001°47'611.4
2018-Jul-18 09:30N 51°22' E 001°52'510.4
2018-Jul-18 09:00N 51°26' E 001°56'5 9.7
2018-Jul-18 08:30N 51°30' E 002°01'5 9.2
2018-Jul-18 08:00N 51°33' E 002°06'4 8.7
2018-Jul-18 07:30N 51°37' E 002°11'4 8.6
2018-Jul-18 07:00N 51°40' E 002°15'4 8.3
2018-Jul-18 06:30N 51°43' E 002°20'4 8.0
2018-Jul-18 06:00N 51°46' E 002°24'4 8.0
2018-Jul-18 05:30N 51°49' E 002°28'38 9.5
2018-Jul-18 01:28N 52°18' E 003°08'511.2
2018-Jul-18 01:00N 52°23' E 003°13'611.3
2018-Jul-18 00:29N 52°27' E 003°19'611.4
2018-Jul-17 23:58N 52°32' E 003°25'511.4
2018-Jul-17 23:30N 52°36' E 003°30'511.0
2018-Jul-17 23:00N 52°40' E 003°36'610.5
2018-Jul-17 22:28N 52°45' E 003°42'5 9.9
2018-Jul-17 21:59N 52°48' E 003°47'5 9.5
2018-Jul-17 21:30N 52°52' E 003°52'54 8.7
2018-Jul-17 15:14N 53°32' E 004°54'210.2
2018-Jul-17 15:00N 53°32' E 004°58'510.0
2018-Jul-17 14:30N 53°34' E 005°06'5 9.8
2018-Jul-17 14:00N 53°36' E 005°13'5 9.5
2018-Jul-17 13:30N 53°38' E 005°21'5 9.2
2018-Jul-17 13:00N 53°39' E 005°28'5 8.9
2018-Jul-17 12:29N 53°41' E 005°36'91 9.8
2018-Jul-17 03:15N 54°01' E 008°06'310.2
2018-Jul-17 02:56N 54°00' E 008°11'4 9.8
2018-Jul-17 02:30N 53°60' E 008°18'4 9.0
2018-Jul-17 02:00N 53°59' E 008°26'4 7.9
2018-Jul-17 01:30N 53°58' E 008°32'4 7.5
2018-Jul-17 00:59N 53°57' E 008°38'3 6.9
2018-Jul-17 00:30N 53°54' E 008°42'7 6.8
2018-Jul-16 23:30N 53°50' E 008°51'510.0
2018-Jul-16 23:00N 53°51' E 008°59'611.3
2018-Jul-16 22:30N 53°53' E 009°09'510.7
2018-Jul-16 22:00N 53°52' E 009°18'612.2
2018-Jul-16 21:30N 53°47' E 009°23'612.0
2018-Jul-16 21:00N 53°42' E 009°30'612.3
2018-Jul-16 20:30N 53°37' E 009°34'612.2
2018-Jul-16 20:00N 53°34' E 009°43'611.8
2018-Jul-16 19:30N 53°33' E 009°53'2 4.7
2018-Jul-16 18:59N 53°31' E 009°56'0 0.0
2018-Jul-16 18:27N 53°31' E 009°56'0 0.0
2018-Jul-16 18:00N 53°31' E 009°56'0 0.0
2018-Jul-16 17:30N 53°31' E 009°56'0 0.0
2018-Jul-16 16:42N 53°31' E 009°56'0 0.1
2018-Jul-16 16:30N 53°31' E 009°56'0 0.0
2018-Jul-16 15:54N 53°31' E 009°56'0 0.0
2018-Jul-16 15:24N 53°31' E 009°56'0 0.0
2018-Jul-16 14:39N 53°31' E 009°56'0 0.1
2018-Jul-16 14:27N 53°31' E 009°56'0 0.0
2018-Jul-16 13:57N 53°31' E 009°56'0 0.0
2018-Jul-16 13:21N 53°31' E 009°56'0 0.0
2018-Jul-16 13:00N 53°31' E 009°56'0 0.0
2018-Jul-16 12:30N 53°31' E 009°56'0 0.1
2018-Jul-16 12:00N 53°31' E 009°56'0 0.0
2018-Jul-16 11:30N 53°31' E 009°56'0 0.0
2018-Jul-16 11:00N 53°31' E 009°56'0 0.0
2018-Jul-16 10:30N 53°31' E 009°56'0 0.0
2018-Jul-16 10:00N 53°31' E 009°56'0 0.0
2018-Jul-16 09:30N 53°31' E 009°56'0 0.0
2018-Jul-16 09:00N 53°31' E 009°56'0 0.0
2018-Jul-16 08:30N 53°31' E 009°56'0 0.0
2018-Jul-16 08:00N 53°31' E 009°56'0 0.0
2018-Jul-16 07:30N 53°31' E 009°56'0 0.0
2018-Jul-16 07:00N 53°31' E 009°56'0 0.0
2018-Jul-16 06:27N 53°31' E 009°56'0 0.0
2018-Jul-16 06:00N 53°31' E 009°56'0 0.7
2018-Jul-16 05:30N 53°31' E 009°56'1 1.5
2018-Jul-16 04:59N 53°32' E 009°58'0 0.0
2018-Jul-16 04:29N 53°32' E 009°58'0 0.0
2018-Jul-16 03:59N 53°32' E 009°58'0 0.0
2018-Jul-16 03:29N 53°32' E 009°58'0 0.0
2018-Jul-16 02:59N 53°32' E 009°58'0 0.0
2018-Jul-16 02:29N 53°32' E 009°58'0 0.0
2018-Jul-16 01:59N 53°32' E 009°58'0 0.0
2018-Jul-16 01:29N 53°32' E 009°58'0 0.0
2018-Jul-16 00:59N 53°32' E 009°58'0 0.0
2018-Jul-16 00:29N 53°32' E 009°58'0 0.0
2018-Jul-15 23:59N 53°32' E 009°58'0 0.0
2018-Jul-15 23:29N 53°32' E 009°58'0 0.0
2018-Jul-15 22:59N 53°32' E 009°58'0 0.0
2018-Jul-15 22:29N 53°32' E 009°58'0 0.0
2018-Jul-15 21:59N 53°32' E 009°58'0 0.0
2018-Jul-15 21:29N 53°32' E 009°58'0 0.0
2018-Jul-15 20:59N 53°32' E 009°58'0 0.0
2018-Jul-15 20:29N 53°32' E 009°58'0 0.0
2018-Jul-15 19:59N 53°32' E 009°58'0 0.0
2018-Jul-15 19:29N 53°32' E 009°58'0 0.0
2018-Jul-15 18:59N 53°32' E 009°58'0 0.0
2018-Jul-15 18:29N 53°32' E 009°58'0 0.0
2018-Jul-15 17:59N 53°32' E 009°58'0 0.0
2018-Jul-15 17:29N 53°32' E 009°58'0 0.0
2018-Jul-15 16:59N 53°32' E 009°58'0 0.0
2018-Jul-15 16:26N 53°32' E 009°58'0 0.0
2018-Jul-15 15:59N 53°32' E 009°58'0 0.0
2018-Jul-15 15:29N 53°32' E 009°58'0 0.0
2018-Jul-15 14:59N 53°32' E 009°58'0 0.0
2018-Jul-15 14:29N 53°32' E 009°58'0 0.0
2018-Jul-15 13:59N 53°32' E 009°58'0 0.0
2018-Jul-15 13:29N 53°32' E 009°58'0 0.0
2018-Jul-15 12:59N 53°32' E 009°58'0 0.0
2018-Jul-15 12:29N 53°32' E 009°58'0 0.0
2018-Jul-15 11:59N 53°32' E 009°58'0 0.0
2018-Jul-15 11:29N 53°32' E 009°58'0 0.0
2018-Jul-15 10:59N 53°32' E 009°58'0 0.0
2018-Jul-15 10:29N 53°32' E 009°58'0 0.0
2018-Jul-15 09:59N 53°32' E 009°58'0 0.0
2018-Jul-15 09:29N 53°32' E 009°58'0 0.0
2018-Jul-15 08:59N 53°32' E 009°58'0 0.0
2018-Jul-15 08:29N 53°32' E 009°58'0 0.0
2018-Jul-15 07:59N 53°32' E 009°58'0 0.0
2018-Jul-15 07:29N 53°32' E 009°58'0 0.0
2018-Jul-15 06:59N 53°32' E 009°58'0 0.0
2018-Jul-15 06:29N 53°32' E 009°58'0 0.0
2018-Jul-15 05:59N 53°32' E 009°58'0 0.0
2018-Jul-15 05:29N 53°32' E 009°58'0 0.0
2018-Jul-15 04:59N 53°32' E 009°58'0 0.0
2018-Jul-15 04:29N 53°32' E 009°58'0 0.0
2018-Jul-15 03:59N 53°32' E 009°58'0 0.0
2018-Jul-15 03:29N 53°32' E 009°58'0 0.0
2018-Jul-15 02:59N 53°32' E 009°58'0 0.0
2018-Jul-15 02:29N 53°32' E 009°58'0 0.0
2018-Jul-15 01:59N 53°32' E 009°58'0 0.0
2018-Jul-15 01:29N 53°32' E 009°58'0 0.0
2018-Jul-15 00:59N 53°32' E 009°58'0 0.0
2018-Jul-15 00:29N 53°32' E 009°58'0 0.0
2018-Jul-14 23:56N 53°32' E 009°58'0 0.0
2018-Jul-14 23:29N 53°32' E 009°58'0 0.0
2018-Jul-14 22:59N 53°32' E 009°58'0 0.0
2018-Jul-14 22:29N 53°32' E 009°58'0 0.0
2018-Jul-14 21:59N 53°32' E 009°58'0 0.0
2018-Jul-14 21:29N 53°32' E 009°58'0 0.0
2018-Jul-14 20:56N 53°32' E 009°58'0 0.5
2018-Jul-14 20:30N 53°32' E 009°57'1 1.6
2018-Jul-14 20:00N 53°31' E 009°56'0 0.4
2018-Jul-14 19:27N 53°31' E 009°57'0 0.0
2018-Jul-14 19:00N 53°31' E 009°57'0 0.0
2018-Jul-14 18:30N 53°31' E 009°57'0 0.0
2018-Jul-14 18:00N 53°31' E 009°57'0 0.0
2018-Jul-14 17:30N 53°31' E 009°57'0 0.0
2018-Jul-14 17:00N 53°31' E 009°57'0 0.0
2018-Jul-14 16:30N 53°31' E 009°57'0 0.0
2018-Jul-14 16:00N 53°31' E 009°57'0 0.0
2018-Jul-14 15:27N 53°31' E 009°57'0 0.0
2018-Jul-14 14:57N 53°31' E 009°57'0 0.0
2018-Jul-14 14:27N 53°31' E 009°57'0 0.0
2018-Jul-14 13:30N 53°31' E 009°57'0 0.0
2018-Jul-14 13:00N 53°31' E 009°57'0 0.0
2018-Jul-14 12:30N 53°31' E 009°57'0 0.0
2018-Jul-14 12:00N 53°31' E 009°57'0 0.0
2018-Jul-14 11:30N 53°31' E 009°57'0 0.0
2018-Jul-14 11:00N 53°31' E 009°57'0 0.0
2018-Jul-14 10:30N 53°31' E 009°57'0 0.0
2018-Jul-14 10:00N 53°31' E 009°57'0 0.0
2018-Jul-14 09:30N 53°31' E 009°57'0 0.0
2018-Jul-14 08:57N 53°31' E 009°57'0 0.0
2018-Jul-14 08:30N 53°31' E 009°57'2 4.5
2018-Jul-14 08:00N 53°32' E 009°54'4 8.4
2018-Jul-14 07:30N 53°33' E 009°47'5 9.4
2018-Jul-14 07:00N 53°34' E 009°39'5 9.1
2018-Jul-14 06:30N 53°37' E 009°33'5 9.0
2018-Jul-14 06:00N 53°41' E 009°30'4 8.9
2018-Jul-14 05:30N 53°45' E 009°25'4 8.8
2018-Jul-14 05:00N 53°49' E 009°22'4 8.7
2018-Jul-14 04:30N 53°52' E 009°17'5 9.2
2018-Jul-14 04:00N 53°53' E 009°10'1 1.5
2018-Jul-14 03:29N 53°53' E 009°08'0 0.2
2018-Jul-14 02:59N 53°53' E 009°08'0 0.0
2018-Jul-14 02:29N 53°53' E 009°08'0 0.0
2018-Jul-14 01:59N 53°53' E 009°08'0 0.0
2018-Jul-14 01:29N 53°53' E 009°08'0 0.0
2018-Jul-14 00:59N 53°53' E 009°08'0 0.0
2018-Jul-14 00:29N 53°53' E 009°08'0 0.0
2018-Jul-13 23:59N 53°53' E 009°08'0 0.0
2018-Jul-13 23:29N 53°53' E 009°08'0 0.0
2018-Jul-13 22:59N 53°53' E 009°08'0 0.0
2018-Jul-13 22:29N 53°53' E 009°08'0 0.0
2018-Jul-13 21:59N 53°53' E 009°08'0 0.1
2018-Jul-13 21:29N 53°53' E 009°08'0 0.2
2018-Jul-13 20:59N 53°53' E 009°08'0 0.0
2018-Jul-13 20:26N 53°53' E 009°08'0 0.0
2018-Jul-13 19:59N 53°53' E 009°08'0 0.0
2018-Jul-13 19:23N 53°53' E 009°08'0 0.0
2018-Jul-13 18:56N 53°53' E 009°08'0 0.0
2018-Jul-13 18:29N 53°53' E 009°08'0 0.0
2018-Jul-13 17:47N 53°53' E 009°08'0 0.0
2018-Jul-13 17:29N 53°53' E 009°08'0 0.0
2018-Jul-13 16:59N 53°53' E 009°08'0 0.0
2018-Jul-13 16:29N 53°53' E 009°08'0 0.0
2018-Jul-13 15:59N 53°53' E 009°08'0 0.2
2018-Jul-13 15:29N 53°53' E 009°08'0 0.1
2018-Jul-13 14:59N 53°52' E 009°08'0 0.1
2018-Jul-13 13:59N 53°53' E 009°08'0 0.0
2018-Jul-13 13:29N 53°53' E 009°08'0 0.0
2018-Jul-13 12:59N 53°53' E 009°08'0 0.0
2018-Jul-13 12:23N 53°53' E 009°08'0 0.0
2018-Jul-13 11:59N 53°53' E 009°08'0 0.0
2018-Jul-13 11:29N 53°53' E 009°08'0 0.0
2018-Jul-13 10:53N 53°53' E 009°08'0 0.0
2018-Jul-13 10:29N 53°53' E 009°08'0 0.0
2018-Jul-13 09:59N 53°53' E 009°08'0 0.1
2018-Jul-13 09:29N 53°53' E 009°08'0 0.0
2018-Jul-13 08:53N 53°53' E 009°08'0 0.2
2018-Jul-13 08:29N 53°53' E 009°08'0 0.1
2018-Jul-13 07:56N 53°53' E 009°08'0 0.0
2018-Jul-13 07:26N 53°53' E 009°08'0 0.0
2018-Jul-13 06:59N 53°53' E 009°08'0 0.0
2018-Jul-13 06:29N 53°53' E 009°08'0 0.0
2018-Jul-13 05:59N 53°53' E 009°08'0 0.0
2018-Jul-13 05:26N 53°53' E 009°08'0 0.0
2018-Jul-13 04:59N 53°53' E 009°08'0 0.0
2018-Jul-13 04:29N 53°53' E 009°08'0 0.0
2018-Jul-13 03:59N 53°53' E 009°08'0 0.0
2018-Jul-13 03:29N 53°53' E 009°08'0 0.0
2018-Jul-13 02:59N 53°53' E 009°08'0 0.0
2018-Jul-13 02:29N 53°53' E 009°08'0 0.3
2018-Jul-13 01:59N 53°53' E 009°08'0 0.0
2018-Jul-13 01:29N 53°53' E 009°08'0 0.0
2018-Jul-13 00:59N 53°53' E 009°08'0 0.0
2018-Jul-13 00:29N 53°53' E 009°08'0 0.0
2018-Jul-12 23:59N 53°53' E 009°08'0 0.0
2018-Jul-12 23:29N 53°53' E 009°08'0 0.0
2018-Jul-12 22:59N 53°53' E 009°08'0 0.0
2018-Jul-12 22:29N 53°53' E 009°08'0 0.0
2018-Jul-12 21:59N 53°53' E 009°08'0 0.0
2018-Jul-12 21:29N 53°53' E 009°08'0 0.0
2018-Jul-12 20:59N 53°53' E 009°08'0 0.0
2018-Jul-12 20:29N 53°53' E 009°08'0 0.2
2018-Jul-12 19:56N 53°53' E 009°08'0 0.1
2018-Jul-12 19:29N 53°53' E 009°08'0 0.0
2018-Jul-12 18:59N 53°53' E 009°08'0 0.0
2018-Jul-12 18:29N 53°53' E 009°08'0 0.0
2018-Jul-12 17:59N 53°53' E 009°08'0 0.0
2018-Jul-12 17:29N 53°53' E 009°08'0 0.0
2018-Jul-12 16:59N 53°53' E 009°08'0 0.0
2018-Jul-12 16:29N 53°53' E 009°08'0 0.0
2018-Jul-12 15:56N 53°53' E 009°08'0 0.1
2018-Jul-12 15:14N 53°53' E 009°08'0 0.2
2018-Jul-12 14:59N 53°53' E 009°08'0 0.1
2018-Jul-12 14:29N 53°53' E 009°08'0 0.1
2018-Jul-12 13:59N 53°53' E 009°08'1 2.6
2018-Jul-12 13:30N 53°53' E 009°06'4 7.6
2018-Jul-12 13:01N 53°51' E 009°00'5 9.1
2018-Jul-12 12:30N 53°50' E 008°53'5 9.3
2018-Jul-12 12:00N 53°51' E 008°45'510.3
2018-Jul-12 11:29N 53°56' E 008°40'510.7
2018-Jul-12 11:00N 53°58' E 008°32'611.2
2018-Jul-12 10:30N 53°59' E 008°23'611.2
2018-Jul-12 10:00N 53°59' E 008°13'510.9
2018-Jul-12 09:30N 53°59' E 008°04'510.1
2018-Jul-12 09:00N 54°02' E 007°57'4 8.0
2018-Jul-12 08:29N 54°04' E 007°51'4 8.0
2018-Jul-12 08:00N 54°06' E 007°45'4 8.1
2018-Jul-12 07:30N 54°08' E 007°38'5 9.7
2018-Jul-12 07:00N 54°09' E 007°31'610.5
2018-Jul-12 06:29N 54°09' E 007°21'510.2
2018-Jul-12 06:00N 54°09' E 007°13'510.3
2018-Jul-12 05:30N 54°09' E 007°04'510.3
2018-Jul-12 04:59N 54°09' E 006°55'1610.6
2018-Jul-12 03:29N 54°08' E 006°28'710.6
2018-Jul-12 02:51N 54°08' E 006°16'410.3
2018-Jul-12 02:27N 54°07' E 006°09'1510.4
2018-Jul-12 00:59N 54°05' E 005°44'610.5
2018-Jul-12 00:25N 54°04' E 005°34'4110.9
2018-Jul-11 20:40N 53°59' E 004°25'211.4
2018-Jul-11 20:30N 53°59' E 004°22'6711.5
2018-Jul-11 14:39N 53°49' E 002°28'  
Track history (hours):
 
Tides and Currents Weather Stations Pressure Air Temp Water Temp Dewpoint Dewpoint Depression Visibility Wind Speed Wind Dir Waves Ship Positions

Fehn Lyra

Last reported at 2018-Jul-19 07:15 UTC. Time now 2018-Jul-22 04:46 UTC.
Position N 49°48' W 003°27'.

Length 89 m; draft 5.7 m.

Type: Cargo ship. MMSI: 275472000.

Date/timePositionNaut miles runAvg speedWind from/ knotsBaromVisibWave heightAir tempDewpointWater temp
2018-Jul-19 07:15N 49°48' W 003°27'311.5
2018-Jul-19 06:57N 49°50' W 003°23'511.8
2018-Jul-19 06:30N 49°52' W 003°16'612.0
2018-Jul-19 06:00N 49°55' W 003°08'612.1
2018-Jul-19 05:30N 49°58' W 002°60'611.7
2018-Jul-19 05:00N 50°00' W 002°51'611.7
2018-Jul-19 04:30N 50°02' W 002°42'611.4
2018-Jul-19 04:00N 50°04' W 002°34'20 9.6
2018-Jul-19 01:54N 50°09' W 002°04'18 7.2
2018-Jul-18 23:28N 50°14' W 001°37'3 7.2
2018-Jul-18 23:00N 50°15' W 001°32'4 7.9
2018-Jul-18 22:30N 50°16' W 001°27'13 9.6
2018-Jul-18 21:10N 50°19' W 001°07'311.4
2018-Jul-18 20:56N 50°20' W 001°03'512.2
2018-Jul-18 20:30N 50°22' W 000°55'612.6
2018-Jul-18 20:00N 50°24' W 000°46'612.6
2018-Jul-18 19:30N 50°25' W 000°37'612.6
2018-Jul-18 19:00N 50°27' W 000°27'612.4
2018-Jul-18 18:30N 50°28' W 000°18'612.0
2018-Jul-18 18:00N 50°30' W 000°09'611.6
2018-Jul-18 17:30N 50°32' E 000°00'611.3
2018-Jul-18 17:00N 50°33' E 000°09'611.0
2018-Jul-18 16:30N 50°35' E 000°17'510.6
2018-Jul-18 16:00N 50°36' E 000°25'510.2
2018-Jul-18 15:30N 50°38' E 000°33'5 9.6
2018-Jul-18 15:00N 50°40' E 000°39'5 9.4
2018-Jul-18 14:30N 50°43' E 000°45'10 9.6
2018-Jul-18 13:30N 50°49' E 000°57'510.0
2018-Jul-18 13:00N 50°52' E 001°03'510.7
2018-Jul-18 12:30N 50°55' E 001°10'611.8
2018-Jul-18 12:00N 50°59' E 001°17'612.9
2018-Jul-18 11:30N 51°03' E 001°25'1413.6
2018-Jul-18 10:30N 51°12' E 001°42'612.1
2018-Jul-18 10:00N 51°17' E 001°47'611.4
2018-Jul-18 09:30N 51°22' E 001°52'510.4
2018-Jul-18 09:00N 51°26' E 001°56'5 9.7
2018-Jul-18 08:30N 51°30' E 002°01'5 9.2
2018-Jul-18 08:00N 51°33' E 002°06'4 8.7
2018-Jul-18 07:30N 51°37' E 002°11'4 8.6
2018-Jul-18 07:00N 51°40' E 002°15'4 8.3
2018-Jul-18 06:30N 51°43' E 002°20'4 8.0
2018-Jul-18 06:00N 51°46' E 002°24'4 8.0
2018-Jul-18 05:30N 51°49' E 002°28'38 9.5
2018-Jul-18 01:28N 52°18' E 003°08'511.2
2018-Jul-18 01:00N 52°23' E 003°13'611.3
2018-Jul-18 00:29N 52°27' E 003°19'611.4
2018-Jul-17 23:58N 52°32' E 003°25'511.4
2018-Jul-17 23:30N 52°36' E 003°30'511.0
2018-Jul-17 23:00N 52°40' E 003°36'610.5
2018-Jul-17 22:28N 52°45' E 003°42'5 9.9
2018-Jul-17 21:59N 52°48' E 003°47'5 9.5
2018-Jul-17 21:30N 52°52' E 003°52'54 8.7
2018-Jul-17 15:14N 53°32' E 004°54'210.2
2018-Jul-17 15:00N 53°32' E 004°58'510.0
2018-Jul-17 14:30N 53°34' E 005°06'5 9.8
2018-Jul-17 14:00N 53°36' E 005°13'5 9.5
2018-Jul-17 13:30N 53°38' E 005°21'5 9.2
2018-Jul-17 13:00N 53°39' E 005°28'5 8.9
2018-Jul-17 12:29N 53°41' E 005°36'91 9.8
2018-Jul-17 03:15N 54°01' E 008°06'310.2
2018-Jul-17 02:56N 54°00' E 008°11'4 9.8
2018-Jul-17 02:30N 53°60' E 008°18'4 9.0
2018-Jul-17 02:00N 53°59' E 008°26'4 7.9
2018-Jul-17 01:30N 53°58' E 008°32'4 7.5
2018-Jul-17 00:59N 53°57' E 008°38'3 6.9
2018-Jul-17 00:30N 53°54' E 008°42'7 6.8
2018-Jul-16 23:30N 53°50' E 008°51'510.0
2018-Jul-16 23:00N 53°51' E 008°59'611.3
2018-Jul-16 22:30N 53°53' E 009°09'510.7
2018-Jul-16 22:00N 53°52' E 009°18'612.2
2018-Jul-16 21:30N 53°47' E 009°23'612.0
2018-Jul-16 21:00N 53°42' E 009°30'612.3
2018-Jul-16 20:30N 53°37' E 009°34'612.2
2018-Jul-16 20:00N 53°34' E 009°43'611.8
2018-Jul-16 19:30N 53°33' E 009°53'2 4.7
2018-Jul-16 18:59N 53°31' E 009°56'0 0.0
2018-Jul-16 18:27N 53°31' E 009°56'0 0.0
2018-Jul-16 18:00N 53°31' E 009°56'0 0.0
2018-Jul-16 17:30N 53°31' E 009°56'0 0.0
2018-Jul-16 16:42N 53°31' E 009°56'0 0.1
2018-Jul-16 16:30N 53°31' E 009°56'0 0.0
2018-Jul-16 15:54N 53°31' E 009°56'0 0.0
2018-Jul-16 15:24N 53°31' E 009°56'0 0.0
2018-Jul-16 14:39N 53°31' E 009°56'0 0.1
2018-Jul-16 14:27N 53°31' E 009°56'0 0.0
2018-Jul-16 13:57N 53°31' E 009°56'0 0.0
2018-Jul-16 13:21N 53°31' E 009°56'0 0.0
2018-Jul-16 13:00N 53°31' E 009°56'0 0.0
2018-Jul-16 12:30N 53°31' E 009°56'0 0.1
2018-Jul-16 12:00N 53°31' E 009°56'0 0.0
2018-Jul-16 11:30N 53°31' E 009°56'0 0.0
2018-Jul-16 11:00N 53°31' E 009°56'0 0.0
2018-Jul-16 10:30N 53°31' E 009°56'0 0.0
2018-Jul-16 10:00N 53°31' E 009°56'0 0.0
2018-Jul-16 09:30N 53°31' E 009°56'0 0.0
2018-Jul-16 09:00N 53°31' E 009°56'0 0.0
2018-Jul-16 08:30N 53°31' E 009°56'0 0.0
2018-Jul-16 08:00N 53°31' E 009°56'0 0.0
2018-Jul-16 07:30N 53°31' E 009°56'0 0.0
2018-Jul-16 07:00N 53°31' E 009°56'0 0.0
2018-Jul-16 06:27N 53°31' E 009°56'0 0.0
2018-Jul-16 06:00N 53°31' E 009°56'0 0.7
2018-Jul-16 05:30N 53°31' E 009°56'1 1.5
2018-Jul-16 04:59N 53°32' E 009°58'0 0.0
2018-Jul-16 04:29N 53°32' E 009°58'0 0.0
2018-Jul-16 03:59N 53°32' E 009°58'0 0.0
2018-Jul-16 03:29N 53°32' E 009°58'0 0.0
2018-Jul-16 02:59N 53°32' E 009°58'0 0.0
2018-Jul-16 02:29N 53°32' E 009°58'0 0.0
2018-Jul-16 01:59N 53°32' E 009°58'0 0.0
2018-Jul-16 01:29N 53°32' E 009°58'0 0.0
2018-Jul-16 00:59N 53°32' E 009°58'0 0.0
2018-Jul-16 00:29N 53°32' E 009°58'0 0.0
2018-Jul-15 23:59N 53°32' E 009°58'0 0.0
2018-Jul-15 23:29N 53°32' E 009°58'0 0.0
2018-Jul-15 22:59N 53°32' E 009°58'0 0.0
2018-Jul-15 22:29N 53°32' E 009°58'0 0.0
2018-Jul-15 21:59N 53°32' E 009°58'0 0.0
2018-Jul-15 21:29N 53°32' E 009°58'0 0.0
2018-Jul-15 20:59N 53°32' E 009°58'0 0.0
2018-Jul-15 20:29N 53°32' E 009°58'0 0.0
2018-Jul-15 19:59N 53°32' E 009°58'0 0.0
2018-Jul-15 19:29N 53°32' E 009°58'0 0.0
2018-Jul-15 18:59N 53°32' E 009°58'0 0.0
2018-Jul-15 18:29N 53°32' E 009°58'0 0.0
2018-Jul-15 17:59N 53°32' E 009°58'0 0.0
2018-Jul-15 17:29N 53°32' E 009°58'0 0.0
2018-Jul-15 16:59N 53°32' E 009°58'0 0.0
2018-Jul-15 16:26N 53°32' E 009°58'0 0.0
2018-Jul-15 15:59N 53°32' E 009°58'0 0.0
2018-Jul-15 15:29N 53°32' E 009°58'0 0.0
2018-Jul-15 14:59N 53°32' E 009°58'0 0.0
2018-Jul-15 14:29N 53°32' E 009°58'0 0.0
2018-Jul-15 13:59N 53°32' E 009°58'0 0.0
2018-Jul-15 13:29N 53°32' E 009°58'0 0.0
2018-Jul-15 12:59N 53°32' E 009°58'0 0.0
2018-Jul-15 12:29N 53°32' E 009°58'0 0.0
2018-Jul-15 11:59N 53°32' E 009°58'0 0.0
2018-Jul-15 11:29N 53°32' E 009°58'0 0.0
2018-Jul-15 10:59N 53°32' E 009°58'0 0.0
2018-Jul-15 10:29N 53°32' E 009°58'0 0.0
2018-Jul-15 09:59N 53°32' E 009°58'0 0.0
2018-Jul-15 09:29N 53°32' E 009°58'0 0.0
2018-Jul-15 08:59N 53°32' E 009°58'0 0.0
2018-Jul-15 08:29N 53°32' E 009°58'0 0.0
2018-Jul-15 07:59N 53°32' E 009°58'0 0.0
2018-Jul-15 07:29N 53°32' E 009°58'0 0.0
2018-Jul-15 06:59N 53°32' E 009°58'0 0.0
2018-Jul-15 06:29N 53°32' E 009°58'0 0.0
2018-Jul-15 05:59N 53°32' E 009°58'0 0.0
2018-Jul-15 05:29N 53°32' E 009°58'0 0.0
2018-Jul-15 04:59N 53°32' E 009°58'0 0.0
2018-Jul-15 04:29N 53°32' E 009°58'0 0.0
2018-Jul-15 03:59N 53°32' E 009°58'0 0.0
2018-Jul-15 03:29N 53°32' E 009°58'0 0.0
2018-Jul-15 02:59N 53°32' E 009°58'0 0.0
2018-Jul-15 02:29N 53°32' E 009°58'0 0.0
2018-Jul-15 01:59N 53°32' E 009°58'0 0.0
2018-Jul-15 01:29N 53°32' E 009°58'0 0.0
2018-Jul-15 00:59N 53°32' E 009°58'0 0.0
2018-Jul-15 00:29N 53°32' E 009°58'0 0.0
2018-Jul-14 23:56N 53°32' E 009°58'0 0.0
2018-Jul-14 23:29N 53°32' E 009°58'0 0.0
2018-Jul-14 22:59N 53°32' E 009°58'0 0.0
2018-Jul-14 22:29N 53°32' E 009°58'0 0.0
2018-Jul-14 21:59N 53°32' E 009°58'0 0.0
2018-Jul-14 21:29N 53°32' E 009°58'0 0.0
2018-Jul-14 20:56N 53°32' E 009°58'0 0.5
2018-Jul-14 20:30N 53°32' E 009°57'1 1.6
2018-Jul-14 20:00N 53°31' E 009°56'0 0.4
2018-Jul-14 19:27N 53°31' E 009°57'0 0.0
2018-Jul-14 19:00N 53°31' E 009°57'0 0.0
2018-Jul-14 18:30N 53°31' E 009°57'0 0.0
2018-Jul-14 18:00N 53°31' E 009°57'0 0.0
2018-Jul-14 17:30N 53°31' E 009°57'0 0.0
2018-Jul-14 17:00N 53°31' E 009°57'0 0.0
2018-Jul-14 16:30N 53°31' E 009°57'0 0.0
2018-Jul-14 16:00N 53°31' E 009°57'0 0.0
2018-Jul-14 15:27N 53°31' E 009°57'0 0.0
2018-Jul-14 14:57N 53°31' E 009°57'0 0.0
2018-Jul-14 14:27N 53°31' E 009°57'0 0.0
2018-Jul-14 13:30N 53°31' E 009°57'0 0.0
2018-Jul-14 13:00N 53°31' E 009°57'0 0.0
2018-Jul-14 12:30N 53°31' E 009°57'0 0.0
2018-Jul-14 12:00N 53°31' E 009°57'0 0.0
2018-Jul-14 11:30N 53°31' E 009°57'0 0.0
2018-Jul-14 11:00N 53°31' E 009°57'0 0.0
2018-Jul-14 10:30N 53°31' E 009°57'0 0.0
2018-Jul-14 10:00N 53°31' E 009°57'0 0.0
2018-Jul-14 09:30N 53°31' E 009°57'0 0.0
2018-Jul-14 08:57N 53°31' E 009°57'0 0.0
2018-Jul-14 08:30N 53°31' E 009°57'2 4.5
2018-Jul-14 08:00N 53°32' E 009°54'4 8.4
2018-Jul-14 07:30N 53°33' E 009°47'5 9.4
2018-Jul-14 07:00N 53°34' E 009°39'5 9.1
2018-Jul-14 06:30N 53°37' E 009°33'5 9.0
2018-Jul-14 06:00N 53°41' E 009°30'4 8.9
2018-Jul-14 05:30N 53°45' E 009°25'4 8.8
2018-Jul-14 05:00N 53°49' E 009°22'4 8.7
2018-Jul-14 04:30N 53°52' E 009°17'5 9.2
2018-Jul-14 04:00N 53°53' E 009°10'1 1.5
2018-Jul-14 03:29N 53°53' E 009°08'0 0.2
2018-Jul-14 02:59N 53°53' E 009°08'0 0.0
2018-Jul-14 02:29N 53°53' E 009°08'0 0.0
2018-Jul-14 01:59N 53°53' E 009°08'0 0.0
2018-Jul-14 01:29N 53°53' E 009°08'0 0.0
2018-Jul-14 00:59N 53°53' E 009°08'0 0.0
2018-Jul-14 00:29N 53°53' E 009°08'0 0.0
2018-Jul-13 23:59N 53°53' E 009°08'0 0.0
2018-Jul-13 23:29N 53°53' E 009°08'0 0.0
2018-Jul-13 22:59N 53°53' E 009°08'0 0.0
2018-Jul-13 22:29N 53°53' E 009°08'0 0.0
2018-Jul-13 21:59N 53°53' E 009°08'0 0.1
2018-Jul-13 21:29N 53°53' E 009°08'0 0.2
2018-Jul-13 20:59N 53°53' E 009°08'0 0.0
2018-Jul-13 20:26N 53°53' E 009°08'0 0.0
2018-Jul-13 19:59N 53°53' E 009°08'0 0.0
2018-Jul-13 19:23N 53°53' E 009°08'0 0.0
2018-Jul-13 18:56N 53°53' E 009°08'0 0.0
2018-Jul-13 18:29N 53°53' E 009°08'0 0.0
2018-Jul-13 17:47N 53°53' E 009°08'0 0.0
2018-Jul-13 17:29N 53°53' E 009°08'0 0.0
2018-Jul-13 16:59N 53°53' E 009°08'0 0.0
2018-Jul-13 16:29N 53°53' E 009°08'0 0.0
2018-Jul-13 15:59N 53°53' E 009°08'0 0.2
2018-Jul-13 15:29N 53°53' E 009°08'0 0.1
2018-Jul-13 14:59N 53°52' E 009°08'0 0.1
2018-Jul-13 13:59N 53°53' E 009°08'0 0.0
2018-Jul-13 13:29N 53°53' E 009°08'0 0.0
2018-Jul-13 12:59N 53°53' E 009°08'0 0.0
2018-Jul-13 12:23N 53°53' E 009°08'0 0.0
2018-Jul-13 11:59N 53°53' E 009°08'0 0.0
2018-Jul-13 11:29N 53°53' E 009°08'0 0.0
2018-Jul-13 10:53N 53°53' E 009°08'0 0.0
2018-Jul-13 10:29N 53°53' E 009°08'0 0.0
2018-Jul-13 09:59N 53°53' E 009°08'0 0.1
2018-Jul-13 09:29N 53°53' E 009°08'0 0.0
2018-Jul-13 08:53N 53°53' E 009°08'0 0.2
2018-Jul-13 08:29N 53°53' E 009°08'0 0.1
2018-Jul-13 07:56N 53°53' E 009°08'0 0.0
2018-Jul-13 07:26N 53°53' E 009°08'0 0.0
2018-Jul-13 06:59N 53°53' E 009°08'0 0.0
2018-Jul-13 06:29N 53°53' E 009°08'0 0.0
2018-Jul-13 05:59N 53°53' E 009°08'0 0.0
2018-Jul-13 05:26N 53°53' E 009°08'0 0.0
2018-Jul-13 04:59N 53°53' E 009°08'0 0.0
2018-Jul-13 04:29N 53°53' E 009°08'0 0.0
2018-Jul-13 03:59N 53°53' E 009°08'0 0.0
2018-Jul-13 03:29N 53°53' E 009°08'0 0.0
2018-Jul-13 02:59N 53°53' E 009°08'0 0.0
2018-Jul-13 02:29N 53°53' E 009°08'0 0.3
2018-Jul-13 01:59N 53°53' E 009°08'0 0.0
2018-Jul-13 01:29N 53°53' E 009°08'0 0.0
2018-Jul-13 00:59N 53°53' E 009°08'0 0.0
2018-Jul-13 00:29N 53°53' E 009°08'0 0.0
2018-Jul-12 23:59N 53°53' E 009°08'0 0.0
2018-Jul-12 23:29N 53°53' E 009°08'0 0.0
2018-Jul-12 22:59N 53°53' E 009°08'0 0.0
2018-Jul-12 22:29N 53°53' E 009°08'0 0.0
2018-Jul-12 21:59N 53°53' E 009°08'0 0.0
2018-Jul-12 21:29N 53°53' E 009°08'0 0.0
2018-Jul-12 20:59N 53°53' E 009°08'0 0.0
2018-Jul-12 20:29N 53°53' E 009°08'0 0.2
2018-Jul-12 19:56N 53°53' E 009°08'0 0.1
2018-Jul-12 19:29N 53°53' E 009°08'0 0.0
2018-Jul-12 18:59N 53°53' E 009°08'0 0.0
2018-Jul-12 18:29N 53°53' E 009°08'0 0.0
2018-Jul-12 17:59N 53°53' E 009°08'0 0.0
2018-Jul-12 17:29N 53°53' E 009°08'0 0.0
2018-Jul-12 16:59N 53°53' E 009°08'0 0.0
2018-Jul-12 16:29N 53°53' E 009°08'0 0.0
2018-Jul-12 15:56N 53°53' E 009°08'0 0.1
2018-Jul-12 15:14N 53°53' E 009°08'0 0.2
2018-Jul-12 14:59N 53°53' E 009°08'0 0.1
2018-Jul-12 14:29N 53°53' E 009°08'0 0.1
2018-Jul-12 13:59N 53°53' E 009°08'1 2.6
2018-Jul-12 13:30N 53°53' E 009°06'4 7.6
2018-Jul-12 13:01N 53°51' E 009°00'5 9.1
2018-Jul-12 12:30N 53°50' E 008°53'5 9.3
2018-Jul-12 12:00N 53°51' E 008°45'510.3
2018-Jul-12 11:29N 53°56' E 008°40'510.7
2018-Jul-12 11:00N 53°58' E 008°32'611.2
2018-Jul-12 10:30N 53°59' E 008°23'611.2
2018-Jul-12 10:00N 53°59' E 008°13'510.9
2018-Jul-12 09:30N 53°59' E 008°04'510.1
2018-Jul-12 09:00N 54°02' E 007°57'4 8.0
2018-Jul-12 08:29N 54°04' E 007°51'4 8.0
2018-Jul-12 08:00N 54°06' E 007°45'4 8.1
2018-Jul-12 07:30N 54°08' E 007°38'5 9.7
2018-Jul-12 07:00N 54°09' E 007°31'610.5
2018-Jul-12 06:29N 54°09' E 007°21'510.2
2018-Jul-12 06:00N 54°09' E 007°13'510.3
2018-Jul-12 05:30N 54°09' E 007°04'510.3
2018-Jul-12 04:59N 54°09' E 006°55'1610.6
2018-Jul-12 03:29N 54°08' E 006°28'710.6
2018-Jul-12 02:51N 54°08' E 006°16'410.3
2018-Jul-12 02:27N 54°07' E 006°09'1510.4
2018-Jul-12 00:59N 54°05' E 005°44'610.5
2018-Jul-12 00:25N 54°04' E 005°34'4110.9
2018-Jul-11 20:40N 53°59' E 004°25'211.4
2018-Jul-11 20:30N 53°59' E 004°22'6711.5
2018-Jul-11 14:39N 53°49' E 002°28'  

Dump ship's entire track history